createdAt,value
2019-04-05T00:01:52.484Z,10.24
2019-04-05T00:04:26.231Z,10.53
2019-04-05T00:06:59.970Z,10.29
2019-04-05T00:09:33.736Z,10.49
2019-04-05T00:12:07.472Z,10.10
2019-04-05T00:14:41.241Z,10.20
2019-04-05T00:17:14.967Z,10.20
2019-04-05T00:19:48.708Z,10.14
2019-04-05T00:22:22.451Z,10.03
2019-04-05T00:24:56.196Z,10.03
2019-04-05T00:27:29.927Z,10.59
2019-04-05T00:30:08.171Z,11.13
2019-04-05T00:32:41.939Z,11.13
2019-04-05T00:35:15.685Z,11.17
2019-04-05T00:37:49.427Z,11.06
2019-04-05T00:40:23.153Z,11.35
2019-04-05T00:42:56.911Z,11.24
2019-04-05T00:45:30.649Z,11.19
2019-04-05T00:48:04.466Z,11.19
2019-04-05T00:50:38.223Z,10.78
2019-04-05T00:53:12.939Z,10.78
2019-04-05T00:55:46.667Z,10.79
2019-04-05T00:58:20.412Z,10.79
2019-04-05T01:00:54.254Z,10.78
2019-04-05T01:03:27.992Z,10.78
2019-04-05T01:06:01.725Z,10.29
2019-04-05T01:08:35.550Z,10.33
2019-04-05T01:11:09.299Z,10.60
2019-04-05T01:13:43.038Z,10.76
2019-04-05T01:16:16.805Z,11.04
2019-04-05T01:18:50.565Z,10.62
2019-04-05T01:21:24.599Z,10.43
2019-04-05T01:23:58.321Z,10.43
2019-04-05T01:26:32.076Z,10.12
2019-04-05T01:29:05.831Z,10.01
2019-04-05T01:31:39.581Z,10.14
2019-04-05T01:34:13.329Z,10.30
2019-04-05T01:36:47.068Z,10.30
2019-04-05T01:39:20.849Z,10.02
2019-04-05T01:41:54.594Z,10.05
2019-04-05T01:44:28.335Z,9.99
2019-04-05T01:47:02.052Z,9.99
2019-04-05T01:49:35.796Z,9.84
2019-04-05T01:52:09.528Z,10.90
2019-04-05T01:54:43.282Z,10.47
2019-04-05T01:57:17.020Z,10.47
2019-04-05T01:59:50.752Z,10.56
2019-04-05T02:02:24.498Z,10.86
2019-04-05T02:04:58.226Z,9.90
2019-04-05T02:07:31.998Z,9.90
2019-04-05T02:10:08.913Z,10.47
2019-04-05T02:12:42.667Z,9.86
2019-04-05T02:15:24.596Z,9.86
2019-04-05T02:17:58.342Z,10.67
2019-04-05T02:20:32.068Z,10.19
2019-04-05T02:23:05.822Z,10.19
2019-04-05T02:25:39.558Z,9.35
2019-04-05T02:28:13.302Z,9.35
2019-04-05T02:30:47.045Z,9.83
2019-04-05T02:33:20.778Z,10.36
2019-04-05T02:35:54.591Z,10.35
2019-04-05T02:38:28.336Z,10.35
2019-04-05T02:41:02.098Z,10.39
2019-04-05T02:43:35.899Z,10.02
2019-04-05T02:46:22.764Z,10.49
2019-04-05T02:48:45.139Z,9.55
2019-04-05T02:51:21.415Z,10.13
2019-04-05T02:53:55.126Z,10.18
2019-04-05T02:56:29.357Z,10.18
2019-04-05T02:59:03.067Z,10.83
2019-04-05T03:01:36.821Z,10.20
2019-04-05T03:04:10.528Z,10.54
2019-04-05T03:06:44.248Z,10.54
2019-04-05T03:09:18.062Z,10.47
2019-04-05T03:11:51.760Z,9.82
2019-04-05T03:14:25.470Z,9.82
2019-04-05T03:16:59.212Z,9.85
2019-04-05T03:19:33.298Z,9.88
2019-04-05T03:22:08.740Z,9.99
2019-04-05T03:24:43.432Z,9.88
2019-04-05T03:27:19.847Z,10.01
2019-04-05T03:29:53.570Z,10.01
2019-04-05T03:32:27.343Z,9.82
2019-04-05T03:35:01.165Z,9.95
2019-04-05T03:37:34.872Z,9.95
2019-04-05T03:40:08.629Z,10.23
2019-04-05T03:42:42.754Z,10.15
2019-04-05T03:45:16.482Z,10.15
2019-04-05T03:47:50.206Z,10.19
2019-04-05T03:50:23.925Z,9.77
2019-04-05T03:52:57.660Z,9.72
2019-04-05T03:55:31.380Z,8.87
2019-04-05T03:58:05.093Z,9.94
2019-04-05T04:00:38.804Z,9.88
2019-04-05T04:03:12.757Z,9.88
2019-04-05T04:05:46.498Z,9.89
2019-04-05T04:08:23.250Z,10.37
2019-04-05T04:10:55.626Z,10.37
2019-04-05T04:13:29.362Z,9.84
2019-04-05T04:16:03.129Z,9.84
2019-04-05T04:18:37.017Z,9.82
2019-04-05T04:21:22.797Z,9.27
2019-04-05T04:23:56.528Z,9.77
2019-04-05T04:26:30.707Z,9.77
2019-04-05T04:29:04.588Z,9.61
2019-04-05T04:31:38.372Z,9.31
2019-04-05T04:34:12.855Z,9.31
2019-04-05T04:36:46.647Z,10.30
2019-04-05T04:39:20.349Z,9.26
2019-04-05T04:41:54.074Z,9.26
2019-04-05T04:44:27.780Z,9.70
2019-04-05T04:47:01.496Z,9.70
2019-04-05T04:49:35.212Z,9.92
2019-04-05T04:52:08.920Z,9.92
2019-04-05T04:54:42.652Z,10.01
2019-04-05T04:57:16.356Z,10.01
2019-04-05T04:59:50.070Z,10.23
2019-04-05T05:02:23.796Z,10.63
2019-04-05T05:04:57.512Z,10.63
2019-04-05T05:07:31.232Z,10.56
2019-04-05T05:10:07.804Z,10.66
2019-04-05T05:12:41.502Z,10.48
2019-04-05T05:15:15.238Z,10.48
2019-04-05T05:17:58.400Z,9.69
2019-04-05T05:20:24.357Z,9.69
2019-04-05T05:22:58.082Z,9.69
2019-04-05T05:25:31.827Z,10.46
2019-04-05T05:28:05.552Z,10.05
2019-04-05T05:30:39.265Z,10.24
2019-04-05T05:33:12.977Z,10.05
2019-04-05T05:35:46.721Z,10.05
2019-04-05T05:38:20.437Z,10.01
2019-04-05T05:40:54.219Z,10.12
2019-04-05T05:43:27.949Z,10.44
2019-04-05T05:46:01.670Z,10.69
2019-04-05T05:48:35.379Z,10.69
2019-04-05T05:51:09.093Z,10.55
2019-04-05T05:53:42.764Z,10.65
2019-04-05T05:56:16.493Z,10.40
2019-04-05T05:58:50.212Z,9.84
2019-04-05T06:01:23.927Z,10.17
2019-04-05T06:03:57.643Z,9.66
2019-04-05T06:06:31.349Z,10.14
2019-04-05T06:09:06.917Z,10.14
2019-04-05T06:11:40.626Z,9.91
2019-04-05T06:14:14.336Z,9.91
2019-04-05T06:16:48.047Z,10.27
2019-04-05T06:19:21.765Z,10.61
2019-04-05T06:21:55.549Z,10.34
2019-04-05T06:24:29.263Z,10.56
2019-04-05T06:27:02.990Z,10.56
2019-04-05T06:29:36.675Z,10.66
2019-04-05T06:32:10.381Z,10.22
2019-04-05T06:34:44.097Z,9.86
2019-04-05T06:37:17.798Z,9.85
2019-04-05T06:39:51.467Z,9.85
2019-04-05T06:42:25.186Z,9.98
2019-04-05T06:44:58.896Z,10.17
2019-04-05T06:47:32.596Z,10.22
2019-04-05T06:50:06.563Z,9.39
2019-04-05T06:52:40.276Z,9.32
2019-04-05T06:55:13.992Z,9.62
2019-04-05T06:57:47.699Z,10.32
2019-04-05T07:00:28.895Z,10.04
2019-04-05T07:03:02.683Z,10.39
2019-04-05T07:05:36.390Z,10.39
2019-04-05T07:08:10.110Z,10.76
2019-04-05T07:10:45.322Z,10.76
2019-04-05T07:13:19.226Z,10.89
2019-04-05T07:15:52.947Z,10.02
2019-04-05T07:18:35.591Z,10.40
2019-04-05T07:21:02.124Z,10.02
2019-04-05T07:23:35.809Z,10.39
2019-04-05T07:26:09.506Z,10.35
2019-04-05T07:28:43.204Z,10.35
2019-04-05T07:31:16.938Z,10.57
2019-04-05T07:33:50.643Z,10.71
2019-04-05T07:36:24.375Z,10.94
2019-04-05T07:38:58.145Z,10.25
2019-04-05T07:41:32.065Z,10.40
2019-04-05T07:44:05.791Z,10.40
2019-04-05T07:46:39.503Z,10.46
2019-04-05T07:49:13.231Z,10.46
2019-04-05T07:51:46.955Z,10.79
2019-04-05T07:54:20.666Z,10.02
2019-04-05T07:56:54.396Z,10.10
2019-04-05T07:59:28.098Z,10.10
2019-04-05T08:02:01.833Z,10.44
2019-04-05T08:04:35.555Z,10.44
2019-04-05T08:07:09.284Z,10.07
2019-04-05T08:09:42.988Z,10.07
2019-04-05T08:12:16.719Z,9.79
2019-04-05T08:14:50.419Z,10.01
2019-04-05T08:17:24.131Z,9.88
2019-04-05T08:19:57.846Z,10.39
2019-04-05T08:22:32.433Z,10.33
2019-04-05T08:25:06.251Z,10.56
2019-04-05T08:27:39.976Z,10.45
2019-04-05T08:30:13.687Z,10.45
2019-04-05T08:32:47.399Z,10.21
2019-04-05T08:35:21.130Z,10.28
2019-04-05T08:37:54.844Z,10.28
2019-04-05T08:40:28.553Z,10.27
2019-04-05T08:43:02.254Z,10.47
2019-04-05T08:45:35.982Z,10.28
2019-04-05T08:48:09.680Z,10.28
2019-04-05T08:50:43.395Z,10.76
2019-04-05T08:53:17.098Z,11.17
2019-04-05T08:55:50.831Z,11.11
2019-04-05T08:58:33.339Z,11.35
2019-04-05T09:00:59.979Z,11.60
2019-04-05T09:03:33.714Z,11.54
2019-04-05T09:06:07.550Z,11.09
2019-04-05T09:08:41.280Z,11.09
2019-04-05T09:11:15.008Z,10.94
2019-04-05T09:13:48.828Z,10.99
2019-04-05T09:16:22.578Z,10.46
2019-04-05T09:18:56.311Z,11.05
2019-04-05T09:21:30.058Z,10.67
2019-04-05T09:24:03.857Z,10.67
2019-04-05T09:26:37.692Z,10.94
2019-04-05T09:29:11.357Z,10.94
2019-04-05T09:31:45.092Z,11.51
2019-04-05T09:34:18.810Z,11.51
2019-04-05T09:36:53.010Z,11.51
2019-04-05T09:39:26.716Z,11.37
2019-04-05T09:42:00.418Z,10.58
2019-04-05T09:44:34.153Z,11.35
2019-04-05T09:47:07.879Z,10.81
2019-04-05T09:49:41.978Z,10.81
2019-04-05T09:52:15.667Z,10.90
2019-04-05T09:54:49.387Z,10.90
2019-04-05T09:57:23.110Z,10.82
2019-04-05T09:59:56.823Z,10.61
2019-04-05T10:02:31.873Z,10.43
2019-04-05T10:05:06.231Z,10.32
2019-04-05T10:07:53.835Z,11.03
2019-04-05T10:10:15.339Z,11.03
2019-04-05T10:12:49.039Z,10.88
2019-04-05T10:15:22.760Z,11.22
2019-04-05T10:17:56.475Z,11.32
2019-04-05T10:20:30.208Z,10.79
2019-04-05T10:23:03.909Z,10.76
2019-04-05T10:25:37.621Z,10.99
2019-04-05T10:28:11.335Z,10.99
2019-04-05T10:30:45.068Z,11.47
2019-04-05T10:33:18.822Z,11.12
2019-04-05T10:35:52.569Z,11.12
2019-04-05T10:38:26.277Z,10.90
2019-04-05T10:41:00.007Z,11.17
2019-04-05T10:43:33.730Z,10.43
2019-04-05T10:46:07.429Z,10.43
2019-04-05T10:48:41.147Z,10.92
2019-04-05T10:51:14.885Z,11.74
2019-04-05T10:53:48.606Z,11.67
2019-04-05T10:56:22.309Z,11.67
2019-04-05T10:58:56.029Z,11.56
2019-04-05T11:01:29.769Z,11.61
2019-04-05T11:04:03.501Z,12.00
2019-04-05T11:06:37.200Z,11.64
2019-04-05T11:09:12.060Z,12.15
2019-04-05T11:11:45.761Z,12.35
2019-04-05T11:14:19.494Z,11.51
2019-04-05T11:16:58.701Z,10.85
2019-04-05T11:19:30.277Z,10.85
2019-04-05T11:22:04.119Z,11.26
2019-04-05T11:24:37.835Z,11.26
2019-04-05T11:27:12.061Z,11.55
2019-04-05T11:29:45.787Z,11.59
2019-04-05T11:32:19.510Z,12.00
2019-04-05T11:34:53.223Z,11.32
2019-04-05T11:37:26.935Z,11.10
2019-04-05T11:40:00.640Z,11.59
2019-04-05T11:42:35.158Z,11.59
2019-04-05T11:45:08.980Z,10.95
2019-04-05T11:47:42.704Z,10.84
2019-04-05T11:50:16.417Z,10.84
2019-04-05T11:52:50.148Z,11.41
2019-04-05T11:55:23.900Z,11.61
2019-04-05T11:57:57.617Z,11.70
2019-04-05T12:00:31.335Z,11.70
2019-04-05T12:03:05.039Z,11.75
2019-04-05T12:05:38.840Z,11.50
2019-04-05T12:08:12.559Z,11.50
2019-04-05T12:10:46.553Z,11.78
2019-04-05T12:13:20.272Z,11.79
2019-04-05T12:15:53.991Z,11.79
2019-04-05T12:18:27.705Z,11.49
2019-04-05T12:21:04.964Z,11.43
2019-04-05T12:23:36.834Z,11.43
2019-04-05T12:26:10.543Z,11.30
2019-04-05T12:28:44.259Z,12.24
2019-04-05T12:31:17.989Z,11.50
2019-04-05T12:33:52.484Z,11.74
2019-04-05T12:36:26.385Z,11.65
2019-04-05T12:39:03.461Z,11.35
2019-04-05T12:41:35.524Z,11.35
2019-04-05T12:44:09.242Z,11.71
2019-04-05T12:46:43.453Z,12.33
2019-04-05T12:49:18.382Z,12.19
2019-04-05T12:51:52.089Z,12.33
2019-04-05T12:54:25.813Z,11.93
2019-04-05T12:56:59.528Z,12.31
2019-04-05T12:59:33.234Z,12.39
2019-04-05T13:02:06.962Z,11.99
2019-04-05T13:04:40.676Z,11.99
2019-04-05T13:07:14.387Z,11.85
2019-04-05T13:09:48.111Z,11.86
2019-04-05T13:12:21.810Z,12.07
2019-04-05T13:15:10.939Z,12.07
2019-04-05T13:17:31.625Z,12.23
2019-04-05T13:20:07.112Z,12.23
2019-04-05T13:22:40.794Z,12.17
2019-04-05T13:25:14.543Z,12.17
2019-04-05T13:27:48.244Z,11.43
2019-04-05T13:30:21.952Z,11.69
2019-04-05T13:32:55.667Z,12.04
2019-04-05T13:35:29.476Z,12.04
2019-04-05T13:38:03.194Z,12.09
2019-04-05T13:40:36.931Z,11.02
2019-04-05T13:43:10.694Z,11.02
2019-04-05T13:45:44.426Z,11.53
2019-04-05T13:48:18.134Z,11.39
2019-04-05T13:50:51.852Z,11.78
2019-04-05T13:53:25.566Z,11.56
2019-04-05T13:55:59.282Z,11.56
2019-04-05T13:58:33.017Z,12.00
2019-04-05T14:01:06.727Z,12.03
2019-04-05T14:03:40.439Z,11.59
2019-04-05T14:06:14.141Z,12.02
2019-04-05T14:08:47.871Z,12.02
2019-04-05T14:11:21.581Z,12.37
2019-04-05T14:13:55.315Z,12.39
2019-04-05T14:16:29.032Z,12.63
2019-04-05T14:19:02.757Z,12.49
2019-04-05T14:21:40.842Z,12.49
2019-04-05T14:24:12.789Z,12.94
2019-04-05T14:26:46.537Z,12.90
2019-04-05T14:29:20.263Z,12.90
2019-04-05T14:31:53.974Z,12.89
2019-04-05T14:34:27.693Z,12.58
2019-04-05T14:37:01.425Z,12.57
2019-04-05T14:39:35.143Z,12.57
2019-04-05T14:42:10.279Z,12.12
2019-04-05T14:44:44.273Z,12.12
2019-04-05T14:47:19.904Z,11.50
2019-04-05T14:49:53.422Z,11.68
2019-04-05T14:52:28.906Z,11.68
2019-04-05T14:55:02.580Z,12.25
2019-04-05T14:57:36.720Z,12.25
2019-04-05T15:00:10.534Z,12.16
2019-04-05T15:02:44.298Z,12.16
2019-04-05T15:05:18.032Z,12.37
2019-04-05T15:07:54.710Z,12.15
2019-04-05T15:10:27.433Z,12.49
2019-04-05T15:13:04.804Z,12.49
2019-04-05T15:15:38.514Z,12.88
2019-04-05T15:18:12.324Z,13.04
2019-04-05T15:20:46.160Z,12.54
2019-04-05T15:23:19.930Z,12.81
2019-04-05T15:25:53.647Z,12.41
2019-04-05T15:28:27.363Z,12.41
2019-04-05T15:31:01.094Z,12.15
2019-04-05T15:33:34.817Z,12.26
2019-04-05T15:36:08.560Z,12.26
2019-04-05T15:38:42.282Z,11.98
2019-04-05T15:41:16.012Z,12.08
2019-04-05T15:43:49.765Z,12.20
2019-04-05T15:46:23.484Z,11.93
2019-04-05T15:48:57.218Z,11.90
2019-04-05T15:51:30.926Z,11.87
2019-04-05T15:54:04.627Z,11.87
2019-04-05T15:56:38.340Z,11.98
2019-04-05T15:59:12.052Z,11.83
2019-04-05T16:01:45.769Z,12.04
2019-04-05T16:04:19.529Z,12.14
2019-04-05T16:06:53.266Z,12.14
2019-04-05T16:09:27.132Z,11.47
2019-04-05T16:12:00.834Z,11.47
2019-04-05T16:14:34.554Z,12.31
2019-04-05T16:17:08.304Z,12.49
2019-04-05T16:19:42.093Z,12.41
2019-04-05T16:22:15.828Z,11.94
2019-04-05T16:24:49.636Z,12.33
2019-04-05T16:27:23.421Z,12.20
2019-04-05T16:29:57.186Z,12.20
2019-04-05T16:32:30.917Z,12.08
2019-04-05T16:35:07.286Z,12.90
2019-04-05T16:37:41.038Z,12.28
2019-04-05T16:40:14.795Z,11.78
2019-04-05T16:43:01.501Z,11.78
2019-04-05T16:45:23.994Z,12.68
2019-04-05T16:47:57.746Z,12.68
2019-04-05T16:50:31.494Z,12.67
2019-04-05T16:53:05.225Z,12.67
2019-04-05T16:55:38.939Z,11.88
2019-04-05T16:58:12.765Z,12.34
2019-04-05T17:00:46.589Z,12.82
2019-04-05T17:03:20.344Z,12.81
2019-04-05T17:05:54.065Z,12.42
2019-04-05T17:08:27.883Z,12.42
2019-04-05T17:11:01.595Z,12.82
2019-04-05T17:13:35.425Z,12.99
2019-04-05T17:16:09.171Z,12.99
2019-04-05T17:18:42.872Z,13.15
2019-04-05T17:21:16.638Z,13.05
2019-04-05T17:23:50.354Z,13.14
2019-04-05T17:26:24.098Z,13.14
2019-04-05T17:28:57.869Z,13.12
2019-04-05T17:31:31.613Z,13.06
2019-04-05T17:34:05.354Z,12.75
2019-04-05T17:36:39.088Z,12.64
2019-04-05T17:39:12.807Z,12.98
2019-04-05T17:41:46.560Z,12.98
2019-04-05T17:44:20.283Z,12.59
2019-04-05T17:46:54.068Z,12.58
2019-04-05T17:49:27.820Z,12.90
2019-04-05T17:52:01.635Z,12.90
2019-04-05T17:54:35.375Z,12.53
2019-04-05T17:57:09.201Z,12.84
2019-04-05T17:59:42.979Z,12.84
2019-04-05T18:02:16.815Z,12.75
2019-04-05T18:04:50.622Z,13.05
2019-04-05T18:07:24.467Z,13.05
2019-04-05T18:09:58.209Z,12.87
2019-04-05T18:12:31.950Z,12.87
2019-04-05T18:15:05.683Z,12.98
2019-04-05T18:17:39.427Z,13.12
2019-04-05T18:20:13.537Z,13.12
2019-04-05T18:22:47.307Z,13.41
2019-04-05T18:25:21.084Z,13.47
2019-04-05T18:27:54.808Z,13.52
2019-04-05T18:30:28.552Z,13.52
2019-04-05T18:33:02.285Z,13.52
2019-04-05T18:35:35.994Z,13.39
2019-04-05T18:38:09.736Z,13.39
2019-04-05T18:40:43.510Z,13.09
2019-04-05T18:43:17.249Z,13.09
2019-04-05T18:45:51.000Z,13.39
2019-04-05T18:48:24.733Z,13.39
2019-04-05T18:50:58.499Z,13.43
2019-04-05T18:53:37.991Z,13.27
2019-04-05T18:56:07.761Z,13.30
2019-04-05T18:58:41.520Z,13.40
2019-04-05T19:01:15.371Z,13.21
2019-04-05T19:03:49.123Z,13.12
2019-04-05T19:06:22.867Z,13.29
2019-04-05T19:08:56.673Z,13.18
2019-04-05T19:11:30.490Z,12.94
2019-04-05T19:14:04.301Z,12.94
2019-04-05T19:16:38.042Z,13.08
2019-04-05T19:19:12.157Z,13.34
2019-04-05T19:21:45.960Z,13.35
2019-04-05T19:24:19.816Z,13.20
2019-04-05T19:26:53.539Z,13.20
2019-04-05T19:29:27.260Z,13.05
2019-04-05T19:50:10.454Z,13.05
2019-04-05T19:52:44.173Z,13.44
2019-04-05T19:55:18.019Z,13.44
2019-04-05T19:57:51.798Z,13.08
2019-04-05T20:00:25.531Z,13.21
2019-04-05T20:02:59.278Z,13.21
2019-04-05T20:05:33.018Z,13.25
2019-04-05T20:08:06.820Z,13.35
2019-04-05T20:10:40.587Z,13.36
2019-04-05T20:13:14.315Z,13.51
2019-04-05T20:15:48.142Z,13.51
2019-04-05T20:18:21.857Z,13.04
2019-04-05T20:20:55.603Z,13.50
2019-04-05T20:23:29.337Z,12.95
2019-04-05T20:26:03.058Z,12.91
2019-04-05T20:28:36.787Z,12.70
2019-04-05T20:31:12.306Z,12.70
2019-04-05T20:33:46.063Z,12.89
2019-04-05T20:36:19.799Z,12.91
2019-04-05T20:38:53.567Z,12.94
2019-04-05T20:41:27.338Z,12.73
2019-04-05T20:44:01.171Z,12.62
2019-04-05T20:46:34.902Z,12.62
2019-04-05T20:49:09.227Z,12.42
2019-04-05T20:51:42.952Z,12.44
2019-04-05T20:54:24.495Z,12.45
2019-04-05T20:56:52.125Z,12.12
2019-04-05T20:59:25.868Z,12.12
2019-04-05T21:01:59.618Z,12.23
2019-04-05T21:04:33.358Z,12.09
2019-04-05T21:07:07.102Z,12.09
2019-04-05T21:09:41.011Z,12.09
2019-04-05T21:12:14.896Z,12.40
2019-04-05T21:14:48.646Z,12.41
2019-04-05T21:17:22.479Z,12.31
2019-04-05T21:19:56.201Z,12.31
2019-04-05T21:22:29.959Z,12.36
2019-04-05T21:25:05.346Z,12.78
2019-04-05T21:27:39.092Z,12.67
2019-04-05T21:30:12.812Z,12.88
2019-04-05T21:32:46.592Z,12.49
2019-04-05T21:35:20.392Z,12.40
2019-04-05T21:37:54.141Z,12.44
2019-04-05T21:40:27.880Z,12.44
2019-04-05T21:43:01.636Z,12.37
2019-04-05T21:45:35.380Z,12.64
2019-04-05T21:48:09.122Z,12.48
2019-04-05T21:50:43.450Z,12.38
2019-04-05T21:53:17.203Z,12.37
2019-04-05T21:55:50.948Z,12.77
2019-04-05T21:58:25.937Z,12.77
2019-04-05T22:00:59.931Z,13.02
2019-04-05T22:03:33.758Z,12.93
2019-04-05T22:06:07.547Z,12.93
2019-04-05T22:08:41.289Z,12.63
2019-04-05T22:11:15.018Z,12.42
2019-04-05T22:13:48.784Z,12.42
2019-04-05T22:16:22.539Z,12.67
2019-04-05T22:18:56.331Z,12.67
2019-04-05T22:21:30.621Z,13.14
2019-04-05T22:24:04.503Z,13.14
2019-04-05T22:26:38.810Z,12.72
2019-04-05T22:29:12.896Z,12.72
2019-04-05T22:31:46.734Z,13.25
2019-04-05T22:34:20.567Z,13.05
2019-04-05T22:36:54.399Z,13.38
2019-04-05T22:39:28.218Z,13.38
2019-04-05T22:42:01.983Z,13.59
2019-04-05T22:44:40.134Z,13.49
2019-04-05T22:47:11.270Z,13.43
2019-04-05T22:49:45.036Z,13.46
2019-04-05T22:52:18.782Z,13.46
2019-04-05T22:54:52.556Z,13.17
2019-04-05T22:57:26.273Z,12.55
2019-04-05T23:00:00.040Z,13.11
2019-04-05T23:02:33.796Z,13.35
2019-04-05T23:05:07.548Z,13.35
2019-04-05T23:07:41.300Z,13.41
2019-04-05T23:10:15.415Z,13.41
2019-04-05T23:12:49.189Z,13.24
2019-04-05T23:15:22.935Z,13.51
2019-04-05T23:17:56.683Z,13.44
2019-04-05T23:20:30.428Z,13.44
2019-04-05T23:23:04.165Z,13.31
2019-04-05T23:25:37.919Z,12.51
2019-04-05T23:28:11.997Z,12.51
2019-04-05T23:30:45.748Z,12.65
2019-04-05T23:33:19.496Z,12.65
2019-04-05T23:35:53.246Z,12.54
2019-04-05T23:38:26.994Z,12.40
2019-04-05T23:41:01.029Z,12.62
2019-04-05T23:43:34.771Z,12.62
2019-04-05T23:46:08.555Z,12.84
2019-04-05T23:48:42.319Z,12.69
2019-04-05T23:51:16.086Z,12.60
2019-04-05T23:53:49.845Z,12.51
2019-04-05T23:56:23.671Z,12.51
2019-04-05T23:58:57.433Z,12.55
